Farmington, UT (84025)

12:55 PM MDT on September 02, 2014 (GMT -0600)
Temple View - FamilyHart | Change Station
CLOSE
Current Station
Personal Weather Station
Location: Bountiful, UT
Elevation: 4967 ft
Nearby Weather Stations

Elev 4967 ft 40.88 °N, 111.85 °W | Updated 3 minutes ago

Clear
Clear
76.9 °F
Feels Like 78 °F
N
1.0
Wind Variable Wind from WSW
Gusts 5.0 mph

Today
High -- | Low -- °F
--% Chance of Precip.
Yesterday
High -- | Low -- °F
Precip. -- in
6:55 AM 7:58 PM
First Quarter, 54% visible
Pressure 29.89 in
Visibility 10.0 miles
Clouds Clear
Heat Index 78 °F
Dew Point 43 °F
Humidity 30%
Rainfall 0.00 in
Snow Depth 0 in , 0 in
UV 8 out of 12
Pollen 7.50 out of 12
PM2.5 Good
Flu Activity Not available.
METAR KHIF 021758Z AUTO VRB02KT 10SM CLR 24/04 A3005 RMK AO2 SLP122 T02390038 10239 20118 55004

More Conditions Fewer Conditions

Pressure 29.89 in
Visibility 10.0 miles
Clouds Clear
Heat Index 78 °F
Dew Point 43 °F
Humidity 30%
Rainfall 0.00 in
Snow Depth 0 in , 0 in
UV 8 out of 12
Pollen 7.50 out of 12
PM2.5 Good
Flu Activity Not available.
METAR KHIF 021758Z AUTO VRB02KT 10SM CLR 24/04 A3005 RMK AO2 SLP122 T02390038 10239 20118 55004

More Conditions Fewer Conditions

10-Day Weather Forecast

Almanac

Astronomy

Sep. 02, 2014 Rise Set
Actual Time 6:55 AM MDT 7:58 PM MDT
Civil Twilight 6:27 AM MDT 8:26 PM MDT
Nautical Twilight 5:53 AM MDT 8:59 PM MDT
Astronomical Twilight 5:18 AM MDT 9:34 PM MDT
Moon 2:46 PM MDT 12:00 AM MDT
Length of Visible Light 13h 59m
Length of Day
13h 02m
Tomorrow will be 2m 38s shorter.
First Quarter, 54% of the Moon is Illuminated
Today
First Quarter
Sep 8
Full
Sep 15
Last Quarter
Sep 24
New
Oct 1
First Quarter

Today's Extremes

State Highs State Lows

Community

WunderPhotos

Upload Photos

1,749,743 photos uploaded!

WunderBlogs® & News

By Dr. Jeff Masters
Director of Meteorology, Weather Underground
By Kari Strenfel
Meteorologist, Weather Underground
By Christopher C. Burt
Weather Historian, Weather Underground
September 2, 2014
September 2, 2014
September 2, 2014

Nearby

Air Quality

  Air Quality AQ Index Pollutant
Yesterday Good
OZONE
Yesterday Good
PM10
Current Good
PM2.5
Tuesday Moderate
OZONE
Wednesday Moderate
OZONE
Thursday Moderate
OZONE

Snow Depth

Station Depth Elevation
Parrish Creek 0 in 7740 ft
Louis Meadow 0 in 6700 ft
Ben Lomond Trail 1 in 6000 ft
Snowbird 0 in 9640 ft
Smith & Morehouse 0 in 7600 ft

Earthquake Activity

City Distance Mag. Time & Date
No recent earthquake activity has been reported nearby.
Minimum magnitude displayed is 2.5.

Coastal Water Temperatures

Place Temperature
No Stations Reporting

Nearby Weather Stations